Time;durP1;ratioP1;P1;durP2;ratioP2;P2;SDS_P1;SDS_P2;PMS_P1;PMS_P2;Temp;Humidity;BMP_temperature;BMP_pressure;BME280_temperature;BME280_humidity;BME280_pressure;Samples;Min_cycle;Max_cycle;Signal;HPM_P1;HPM_P2
2021/04/01 00:01:34;;;;;;;13.57;8.80;;;;;;;;;;5076184;28;20476;-80
2021/04/01 00:04:00;;;;;;;15.27;8.88;;;;;;;;;;5076683;28;20154;-80
2021/04/01 00:06:26;;;;;;;17.30;8.57;;;;;;;;;;5058209;28;20373;-80
2021/04/01 00:08:52;;;;;;;11.82;8.48;;;;;;;;;;5076712;28;20099;-80
2021/04/01 00:11:19;;;;;;;13.73;8.77;;;;;;;;;;5058217;28;20479;-80
2021/04/01 00:13:45;;;;;;;13.68;9.95;;;;;;;;;;5057877;28;20492;-80
2021/04/01 00:16:11;;;;;;;16.90;9.27;;;;;;;;;;5076423;28;20048;-80
2021/04/01 00:18:38;;;;;;;15.43;9.77;;;;;;;;;;5076215;28;20104;-80
2021/04/01 00:21:04;;;;;;;13.18;9.80;;;;;;;;;;5076268;28;20056;-80
2021/04/01 00:23:30;;;;;;;14.80;9.27;;;;;;;;;;5076393;28;20086;-80
2021/04/01 00:25:57;;;;;;;13.95;9.57;;;;;;;;;;5075906;28;20028;-80
2021/04/01 00:28:23;;;;;;;17.17;10.40;;;;;;;;;;5076658;28;20024;-80
2021/04/01 00:30:49;;;;;;;17.60;10.70;;;;;;;;;;5057626;28;20488;-80
2021/04/01 00:33:15;;;;;;;13.70;8.85;;;;;;;;;;5075978;28;20020;-80
2021/04/01 00:35:41;;;;;;;16.40;7.95;;;;;;;;;;5058321;28;20048;-80
2021/04/01 00:38:07;;;;;;;13.98;8.55;;;;;;;;;;5076812;28;20048;-80
2021/04/01 00:40:33;;;;;;;16.30;9.20;;;;;;;;;;5075832;28;20032;-80
2021/04/01 00:42:59;;;;;;;15.30;9.73;;;;;;;;;;5057844;28;20089;-80
2021/04/01 00:45:25;;;;;;;17.15;11.50;;;;;;;;;;5058599;28;20395;-80
2021/04/01 00:47:53;;;;;;;17.25;13.43;;;;;;;;;;5058537;28;20032;-80
2021/04/01 00:50:22;;;;;;;24.77;14.95;;;;;;;;;;5076216;28;20066;-80
2021/04/01 00:52:48;;;;;;;24.80;16.25;;;;;;;;;;5058272;28;20487;-80
2021/04/01 00:55:15;;;;;;;36.33;17.27;;;;;;;;;;5075692;28;20032;-80
2021/04/01 00:57:43;;;;;;;33.90;18.27;;;;;;;;;;5075339;28;20021;-80
2021/04/01 01:00:11;;;;;;;42.40;18.20;;;;;;;;;;5076289;28;20106;-79
2021/04/01 01:02:37;;;;;;;31.88;18.13;;;;;;;;;;5073116;28;20503;-76
2021/04/01 01:05:04;;;;;;;35.20;19.25;;;;;;;;;;5073644;28;20029;-76
2021/04/01 01:07:30;;;;;;;37.28;19.08;;;;;;;;;;5072822;28;20020;-76
2021/04/01 01:09:57;;;;;;;33.17;19.42;;;;;;;;;;5072821;28;20025;-76
2021/04/01 01:12:23;;;;;;;44.80;18.67;;;;;;;;;;5072379;28;20028;-76
2021/04/01 01:14:49;;;;;;;35.80;18.10;;;;;;;;;;5055423;28;20024;-76
2021/04/01 01:17:15;;;;;;;56.10;17.13;;;;;;;;;;5073266;28;20025;-77
2021/04/01 01:19:42;;;;;;;30.73;15.68;;;;;;;;;;5055213;28;20021;-76
2021/04/01 01:22:08;;;;;;;25.33;14.20;;;;;;;;;;5076627;28;20020;-76
2021/04/01 01:24:38;;;;;;;40.58;15.43;;;;;;;;;;5076016;28;20032;-76
2021/04/01 01:27:05;;;;;;;27.98;12.88;;;;;;;;;;5058219;28;20020;-76
2021/04/01 01:29:31;;;;;;;35.50;13.30;;;;;;;;;;5076646;28;20035;-76
2021/04/01 01:31:57;;;;;;;34.28;13.05;;;;;;;;;;5077085;28;20028;-76
2021/04/01 01:34:23;;;;;;;28.80;13.52;;;;;;;;;;5076089;28;20491;-76
2021/04/01 01:36:50;;;;;;;47.70;13.88;;;;;;;;;;5076147;28;20021;-76
2021/04/01 01:39:16;;;;;;;37.70;13.60;;;;;;;;;;5076661;28;20028;-76
2021/04/01 01:41:42;;;;;;;29.58;13.32;;;;;;;;;;5076349;28;20020;-76
2021/04/01 01:44:08;;;;;;;75.00;13.15;;;;;;;;;;5057904;28;20024;-76
2021/04/01 01:46:34;;;;;;;61.83;14.57;;;;;;;;;;5076037;28;20103;-76
2021/04/01 01:49:00;;;;;;;35.20;12.90;;;;;;;;;;5058230;28;20506;-76
2021/04/01 01:51:27;;;;;;;43.55;13.63;;;;;;;;;;5076133;28;20025;-76
2021/04/01 01:53:54;;;;;;;33.22;12.57;;;;;;;;;;5057706;28;20403;-76
2021/04/01 01:56:21;;;;;;;28.77;13.45;;;;;;;;;;5076161;28;20025;-76
2021/04/01 01:58:48;;;;;;;37.08;12.90;;;;;;;;;;5075651;28;20023;-76
2021/04/01 02:01:14;;;;;;;55.70;13.90;;;;;;;;;;5057968;28;20023;-76
2021/04/01 02:03:40;;;;;;;27.33;13.45;;;;;;;;;;5076009;28;20085;-76
2021/04/01 02:06:06;;;;;;;49.15;14.13;;;;;;;;;;5075745;28;20034;-76
2021/04/01 02:08:32;;;;;;;53.88;14.30;;;;;;;;;;5057854;28;20047;-76
2021/04/01 02:10:59;;;;;;;38.20;14.15;;;;;;;;;;5075564;28;20024;-76
2021/04/01 02:13:25;;;;;;;47.17;13.93;;;;;;;;;;5057261;28;20414;-76
2021/04/01 02:15:51;;;;;;;70.35;15.60;;;;;;;;;;5075843;28;20020;-76
2021/04/01 02:18:18;;;;;;;77.70;15.50;;;;;;;;;;5057815;28;20033;-76
2021/04/01 02:20:46;;;;;;;67.60;15.30;;;;;;;;;;5076201;28;20491;-76
2021/04/01 02:23:14;;;;;;;75.32;15.32;;;;;;;;;;5075904;28;20051;-76
2021/04/01 02:25:41;;;;;;;68.93;15.88;;;;;;;;;;5075499;28;20028;-76
2021/04/01 02:28:07;;;;;;;56.67;13.90;;;;;;;;;;5075838;28;20048;-76
2021/04/01 02:30:34;;;;;;;112.60;15.80;;;;;;;;;;5075359;28;20111;-76
2021/04/01 02:33:00;;;;;;;44.72;14.98;;;;;;;;;;5057183;28;20440;-76
2021/04/01 02:35:27;;;;;;;42.85;13.63;;;;;;;;;;5075406;28;20040;-77
2021/04/01 02:37:53;;;;;;;32.22;14.02;;;;;;;;;;5075366;28;20471;-76
2021/04/01 02:40:19;;;;;;;48.13;13.95;;;;;;;;;;5074997;28;20024;-76
2021/04/01 02:42:45;;;;;;;35.95;14.20;;;;;;;;;;5074867;28;20111;-76
2021/04/01 02:45:12;;;;;;;40.08;13.82;;;;;;;;;;5074891;28;20067;-76
2021/04/01 02:47:38;;;;;;;39.42;13.43;;;;;;;;;;5075070;28;20441;-76
2021/04/01 02:50:05;;;;;;;41.60;14.77;;;;;;;;;;5074635;28;20024;-76
2021/04/01 02:52:32;;;;;;;45.20;15.23;;;;;;;;;;5074745;28;20020;-76
2021/04/01 02:54:58;;;;;;;67.30;14.50;;;;;;;;;;5074550;28;20535;-76
2021/04/01 02:57:24;;;;;;;76.93;16.45;;;;;;;;;;5074924;28;20044;-77
2021/04/01 02:59:50;;;;;;;66.28;14.65;;;;;;;;;;5074640;28;20508;-76
2021/04/01 03:02:17;;;;;;;61.80;15.38;;;;;;;;;;5074714;28;20028;-76
2021/04/01 03:04:43;;;;;;;47.17;14.27;;;;;;;;;;5074176;28;20491;-76
2021/04/01 03:07:10;;;;;;;32.00;12.23;;;;;;;;;;5056398;28;20036;-76
2021/04/01 03:09:36;;;;;;;22.88;10.57;;;;;;;;;;5074722;28;20131;-76
2021/04/01 03:12:02;;;;;;;44.53;11.00;;;;;;;;;;5075164;28;20033;-76
2021/04/01 03:14:28;;;;;;;21.63;9.68;;;;;;;;;;5073920;28;20072;-76
2021/04/01 03:16:54;;;;;;;19.38;9.52;;;;;;;;;;5074384;28;20535;-76
2021/04/01 03:19:20;;;;;;;14.65;9.25;;;;;;;;;;5074451;28;20016;-76
2021/04/01 03:21:46;;;;;;;27.17;8.40;;;;;;;;;;5056338;28;20025;-76
2021/04/01 03:24:13;;;;;;;20.67;7.53;;;;;;;;;;5073987;28;20526;-76
2021/04/01 03:26:40;;;;;;;21.30;7.80;;;;;;;;;;5056274;28;20033;-76
2021/04/01 03:29:06;;;;;;;11.07;8.13;;;;;;;;;;5056359;28;20056;-76
2021/04/01 03:31:33;;;;;;;11.32;7.63;;;;;;;;;;5074466;28;20028;-76
2021/04/01 03:33:59;;;;;;;16.38;8.57;;;;;;;;;;5055922;28;20024;-76
2021/04/01 03:36:26;;;;;;;21.80;9.18;;;;;;;;;;5074029;28;20028;-76
2021/04/01 03:38:52;;;;;;;32.55;9.48;;;;;;;;;;5074099;28;20523;-76
2021/04/01 03:41:18;;;;;;;14.35;9.40;;;;;;;;;;5055742;28;20025;-76
2021/04/01 03:43:44;;;;;;;16.67;8.48;;;;;;;;;;5073297;28;20024;-76
2021/04/01 03:46:12;;;;;;;17.60;8.88;;;;;;;;;;5056022;28;20035;-76
2021/04/01 03:48:38;;;;;;;12.88;7.68;;;;;;;;;;5074342;28;20033;-76
2021/04/01 03:51:04;;;;;;;19.45;7.00;;;;;;;;;;5073953;28;20032;-76
2021/04/01 03:53:30;;;;;;;10.75;6.80;;;;;;;;;;5073908;28;20025;-76
2021/04/01 03:55:57;;;;;;;11.68;7.15;;;;;;;;;;5073448;28;20029;-76
2021/04/01 04:14:10;;;;;;;13.75;8.45;;;;;;;;;;5054463;28;20036;-76
2021/04/01 04:16:36;;;;;;;13.75;8.73;;;;;;;;;;5073630;28;20016;-76
2021/04/01 04:19:02;;;;;;;12.02;8.38;;;;;;;;;;5073088;28;20052;-76
2021/04/01 04:21:29;;;;;;;13.82;8.05;;;;;;;;;;5073133;28;20032;-76
2021/04/01 04:23:55;;;;;;;12.38;7.30;;;;;;;;;;5073172;28;20118;-76
2021/04/01 04:26:22;;;;;;;11.27;7.82;;;;;;;;;;5073233;28;20505;-76
2021/04/01 04:28:49;;;;;;;12.75;7.90;;;;;;;;;;5072974;28;20029;-76
2021/04/01 04:31:15;;;;;;;70.65;13.00;;;;;;;;;;5055894;28;20028;-77
2021/04/01 04:33:41;;;;;;;35.50;9.60;;;;;;;;;;5073493;28;20056;-77
2021/04/01 04:36:07;;;;;;;20.05;7.75;;;;;;;;;;5073552;28;20486;-77
2021/04/01 04:38:33;;;;;;;12.73;7.30;;;;;;;;;;5073474;28;20021;-77
2021/04/01 04:41:00;;;;;;;10.57;7.60;;;;;;;;;;5073602;28;20463;-77
2021/04/01 04:43:27;;;;;;;10.05;6.80;;;;;;;;;;5055375;28;20399;-77
2021/04/01 04:45:53;;;;;;;14.73;7.55;;;;;;;;;;5073278;28;20536;-77
2021/04/01 04:48:20;;;;;;;14.70;7.32;;;;;;;;;;5073700;28;20029;-77
2021/04/01 04:50:46;;;;;;;11.68;7.40;;;;;;;;;;5072979;28;20020;-77
2021/04/01 04:53:13;;;;;;;13.85;8.07;;;;;;;;;;5073009;28;20025;-77
2021/04/01 04:55:41;;;;;;;12.07;7.70;;;;;;;;;;5074161;28;20060;-77
2021/04/01 04:58:13;;;;;;;11.82;7.15;;;;;;;;;;5076697;28;20498;-77
2021/04/01 05:06:00;;;;;;;12.63;7.57;;;;;;;;;;5076750;28;20090;-77
2021/04/01 05:08:26;;;;;;;12.48;6.93;;;;;;;;;;5076361;28;20107;-77
2021/04/01 05:10:52;;;;;;;13.45;7.53;;;;;;;;;;5076418;28;20024;-77
2021/04/01 05:13:19;;;;;;;14.73;7.00;;;;;;;;;;5076562;28;20518;-77
2021/04/01 05:15:49;;;;;;;11.18;7.20;;;;;;;;;;5076340;28;20367;-77
2021/04/01 05:20:49;;;;;;;19.88;7.18;;;;;;;;;;5076144;28;20032;-77
2021/04/01 05:25:49;;;;;;;16.38;7.45;;;;;;;;;;5076611;28;20123;-77
2021/04/01 05:30:47;;;;;;;13.15;6.10;;;;;;;;;;5076151;28;20522;-77
2021/04/01 05:33:15;;;;;;;17.10;6.35;;;;;;;;;;5058361;28;20020;-77
2021/04/01 05:35:41;;;;;;;14.13;6.82;;;;;;;;;;5058387;28;20024;-77
2021/04/01 05:38:07;;;;;;;15.43;5.95;;;;;;;;;;5058326;28;20020;-77
2021/04/01 05:40:34;;;;;;;14.20;7.47;;;;;;;;;;5075526;28;20017;-77
2021/04/01 05:43:02;;;;;;;16.15;6.97;;;;;;;;;;5076023;28;20032;-77
2021/04/01 05:45:46;;;;;;;17.10;6.93;;;;;;;;;;5075509;28;20402;-77
2021/04/01 05:48:25;;;;;;;16.27;6.60;;;;;;;;;;5057641;28;20029;-77
2021/04/01 05:56:57;;;;;;;10.93;6.25;;;;;;;;;;5075493;28;20027;-77
2021/04/01 05:59:30;;;;;;;15.15;6.50;;;;;;;;;;5075105;28;20035;-77
2021/04/01 06:04:35;;;;;;;14.20;5.97;;;;;;;;;;5075592;28;20086;-77
2021/04/01 06:07:09;;;;;;;15.10;6.70;;;;;;;;;;5074990;28;20024;-77
2021/04/01 06:09:38;;;;;;;16.08;6.22;;;;;;;;;;5075218;28;20037;-77
2021/04/01 06:12:05;;;;;;;15.38;5.90;;;;;;;;;;5075043;28;20028;-77
2021/04/01 06:14:34;;;;;;;21.33;6.72;;;;;;;;;;5075073;28;20119;-77
2021/04/01 06:17:07;;;;;;;21.42;6.68;;;;;;;;;;5075119;28;20025;-77
2021/04/01 06:19:34;;;;;;;24.20;7.47;;;;;;;;;;5056881;28;20031;-77
2021/04/01 06:22:03;;;;;;;22.30;6.43;;;;;;;;;;5075359;28;20035;-77
2021/04/01 06:24:30;;;;;;;28.05;6.15;;;;;;;;;;5075459;28;20034;-77
2021/04/01 06:27:08;;;;;;;15.00;5.78;;;;;;;;;;5075033;28;20029;-77
2021/04/01 06:29:37;;;;;;;24.17;7.10;;;;;;;;;;5074993;28;20031;-77
2021/04/01 06:32:05;;;;;;;20.40;6.00;;;;;;;;;;5056725;28;20029;-77
2021/04/01 06:34:34;;;;;;;16.20;5.25;;;;;;;;;;5074825;28;20387;-77
2021/04/01 06:37:00;;;;;;;23.65;6.15;;;;;;;;;;5075155;28;20439;-77
2021/04/01 06:39:26;;;;;;;24.02;5.40;;;;;;;;;;5075259;28;20021;-77
2021/04/01 06:42:07;;;;;;;18.40;5.32;;;;;;;;;;5074476;28;20047;-77
2021/04/01 06:44:54;;;;;;;16.27;4.35;;;;;;;;;;5056688;28;20034;-77
2021/04/01 06:47:24;;;;;;;14.75;7.40;;;;;;;;;;5074423;28;20343;-77
2021/04/01 06:52:24;;;;;;;8.68;4.38;;;;;;;;;;5074607;28;20063;-77
2021/04/01 06:55:43;;;;;;;13.98;4.40;;;;;;;;;;5056561;28;20086;-77
2021/04/01 07:00:30;;;;;;;13.52;4.85;;;;;;;;;;5081237;28;20040;-75
2021/04/01 07:03:10;;;;;;;27.00;5.30;;;;;;;;;;5090970;28;20056;-75
2021/04/01 07:05:47;;;;;;;18.13;5.45;;;;;;;;;;5082701;28;20437;-76
2021/04/01 07:08:14;;;;;;;17.65;5.00;;;;;;;;;;5078226;28;20041;-76
2021/04/01 07:10:50;;;;;;;27.88;5.43;;;;;;;;;;5024563;28;20064;-77
2021/04/01 07:13:20;;;;;;;42.60;6.80;;;;;;;;;;5074068;28;20047;-76
2021/04/01 07:15:50;;;;;;;15.10;5.40;;;;;;;;;;5069922;28;21224;-75
2021/04/01 07:34:48;;;;;;;14.32;7.53;;;;;;;;;;5072059;28;20584;-76
2021/04/01 07:48:25;;;;;;;17.10;5.32;;;;;;;;;;5072365;28;20086;-76
2021/04/01 07:50:54;;;;;;;8.40;4.63;;;;;;;;;;5072731;28;20024;-76
2021/04/01 07:53:25;;;;;;;13.68;4.80;;;;;;;;;;5090701;28;20036;-76
2021/04/01 07:56:39;;;;;;;17.70;4.85;;;;;;;;;;5088919;28;20037;-74
2021/04/01 08:03:54;;;;;;;12.20;4.88;;;;;;;;;;5088654;28;20036;-76
2021/04/01 08:06:23;;;;;;;11.10;4.75;;;;;;;;;;5086000;28;20119;-75
2021/04/01 08:08:51;;;;;;;13.35;4.32;;;;;;;;;;5083295;28;20024;-75
2021/04/01 08:11:30;;;;;;;8.30;3.60;;;;;;;;;;5082771;28;20028;-74
2021/04/01 08:14:19;;;;;;;14.48;4.28;;;;;;;;;;5078286;28;20029;-75
2021/04/01 08:16:54;;;;;;;21.38;5.20;;;;;;;;;;5075074;28;20143;-75
2021/04/01 08:19:23;;;;;;;14.77;4.32;;;;;;;;;;5090283;28;20072;-75
2021/04/01 08:21:50;;;;;;;8.30;3.70;;;;;;;;;;5057432;28;20115;-74
2021/04/01 08:35:25;;;;;;;14.32;5.35;;;;;;;;;;5049036;28;20482;-74
2021/04/01 08:38:05;;;;;;;11.00;3.88;;;;;;;;;;5094153;28;20050;-74
2021/04/01 08:40:31;;;;;;;21.17;4.05;;;;;;;;;;5084027;28;20028;-75
2021/04/01 08:43:04;;;;;;;12.77;3.83;;;;;;;;;;5086111;28;20021;-74
2021/04/01 08:45:36;;;;;;;7.45;2.92;;;;;;;;;;5092508;28;20032;-74
2021/04/01 08:48:21;;;;;;;8.35;3.70;;;;;;;;;;5091615;28;20491;-74
2021/04/01 08:51:02;;;;;;;8.73;3.90;;;;;;;;;;5090835;28;20079;-74
2021/04/01 08:53:44;;;;;;;9.32;3.83;;;;;;;;;;5059847;28;20110;-73
2021/04/01 08:58:47;;;;;;;11.15;3.42;;;;;;;;;;5081644;28;20039;-74
2021/04/01 09:01:14;;;;;;;12.38;3.80;;;;;;;;;;5076921;28;20477;-74
2021/04/01 09:03:45;;;;;;;13.75;3.88;;;;;;;;;;5094099;28;20027;-75
2021/04/01 09:06:13;;;;;;;12.65;3.63;;;;;;;;;;5073289;28;20479;-74
2021/04/01 09:08:45;;;;;;;8.75;3.85;;;;;;;;;;5076319;28;20089;-74
2021/04/01 09:11:12;;;;;;;11.23;3.80;;;;;;;;;;5084518;28;20067;-75
2021/04/01 09:13:45;;;;;;;11.48;4.45;;;;;;;;;;5081183;28;20075;-75
2021/04/01 09:16:21;;;;;;;14.65;4.85;;;;;;;;;;5065726;28;20094;-75
2021/04/01 09:18:47;;;;;;;14.40;3.60;;;;;;;;;;5086460;28;20467;-75
2021/04/01 09:21:14;;;;;;;13.73;3.38;;;;;;;;;;5062686;28;20024;-74
2021/04/01 09:23:47;;;;;;;7.78;3.47;;;;;;;;;;5078023;28;20028;-74
2021/04/01 09:26:13;;;;;;;13.88;3.53;;;;;;;;;;5053100;28;20039;-75
2021/04/01 09:28:41;;;;;;;16.88;4.70;;;;;;;;;;5060597;28;20040;-74
2021/04/01 09:31:08;;;;;;;8.38;3.95;;;;;;;;;;5080900;28;20043;-73
2021/04/01 09:33:39;;;;;;;20.50;3.22;;;;;;;;;;5061702;28;20188;-73
2021/04/01 09:36:11;;;;;;;10.95;3.63;;;;;;;;;;5071773;28;20020;-74
2021/04/01 09:38:38;;;;;;;14.07;3.58;;;;;;;;;;5069620;28;20391;-73
2021/04/01 09:41:04;;;;;;;9.07;3.72;;;;;;;;;;5067056;28;20387;-73
2021/04/01 09:43:30;;;;;;;8.93;3.38;;;;;;;;;;5073435;28;20515;-74
2021/04/01 09:46:08;;;;;;;13.70;3.20;;;;;;;;;;5067814;28;20039;-73
2021/04/01 09:48:37;;;;;;;10.25;3.75;;;;;;;;;;5067562;28;20028;-73
2021/04/01 09:51:16;;;;;;;12.35;3.67;;;;;;;;;;5079629;28;20033;-73
2021/04/01 09:53:49;;;;;;;9.85;3.95;;;;;;;;;;5068806;28;20496;-73
2021/04/01 09:56:20;;;;;;;7.68;3.17;;;;;;;;;;5075058;28;20720;-74
2021/04/01 09:58:48;;;;;;;19.55;10.45;;;;;;;;;;5058730;28;20024;-74
2021/04/01 10:03:44;;;;;;;10.95;5.00;;;;;;;;;;5080003;28;20111;-75
2021/04/01 10:06:10;;;;;;;17.13;3.40;;;;;;;;;;5081528;28;20836;-74
2021/04/01 10:08:37;;;;;;;7.47;3.10;;;;;;;;;;5085459;28;20031;-74
2021/04/01 10:11:09;;;;;;;8.20;3.25;;;;;;;;;;5072573;28;20048;-74
2021/04/01 10:13:35;;;;;;;10.20;3.08;;;;;;;;;;5082439;28;20048;-75
2021/04/01 10:16:01;;;;;;;9.93;3.28;;;;;;;;;;5052835;28;20028;-75
2021/04/01 10:18:28;;;;;;;9.98;3.25;;;;;;;;;;5073849;28;20025;-75
2021/04/01 10:21:05;;;;;;;11.52;3.05;;;;;;;;;;5074249;28;20475;-75
2021/04/01 10:23:42;;;;;;;13.52;3.22;;;;;;;;;;5072470;28;20035;-72
2021/04/01 10:26:10;;;;;;;17.48;4.72;;;;;;;;;;5081667;28;20348;-73
2021/04/01 10:28:42;;;;;;;16.60;4.18;;;;;;;;;;5076424;28;20022;-73
2021/04/01 10:31:13;;;;;;;7.90;3.55;;;;;;;;;;5076388;28;20062;-72
2021/04/01 10:34:01;;;;;;;10.00;3.47;;;;;;;;;;5091138;28;20113;-72
2021/04/01 10:36:29;;;;;;;9.40;4.50;;;;;;;;;;5066073;28;20641;-72
2021/04/01 10:39:08;;;;;;;11.95;3.38;;;;;;;;;;5080191;28;20072;-72
2021/04/01 10:41:43;;;;;;;11.25;3.40;;;;;;;;;;5057287;28;20059;-73
2021/04/01 10:44:10;;;;;;;12.50;3.15;;;;;;;;;;5072391;28;20024;-74
2021/04/01 10:46:36;;;;;;;7.88;3.00;;;;;;;;;;5079969;28;20443;-73
2021/04/01 10:49:02;;;;;;;10.63;3.92;;;;;;;;;;5079591;28;20024;-73
2021/04/01 10:51:29;;;;;;;11.85;3.65;;;;;;;;;;5075764;28;20073;-73
2021/04/01 10:53:56;;;;;;;9.60;3.13;;;;;;;;;;5083537;28;20028;-72
2021/04/01 10:56:23;;;;;;;15.15;4.97;;;;;;;;;;5082815;28;20032;-73
2021/04/01 10:58:53;;;;;;;9.27;4.45;;;;;;;;;;5081044;28;20020;-72
2021/04/01 11:01:21;;;;;;;11.63;4.43;;;;;;;;;;5076937;28;20032;-73
2021/04/01 11:03:50;;;;;;;15.80;4.78;;;;;;;;;;5054339;28;20112;-74
2021/04/01 11:06:17;;;;;;;15.93;4.13;;;;;;;;;;5064537;28;20026;-74
2021/04/01 11:08:44;;;;;;;13.20;3.65;;;;;;;;;;5064651;28;20783;-74
2021/04/01 11:11:11;;;;;;;8.98;3.22;;;;;;;;;;5083161;28;20039;-74
2021/04/01 11:13:42;;;;;;;12.77;3.20;;;;;;;;;;5082303;28;20085;-74
2021/04/01 11:16:09;;;;;;;11.73;3.30;;;;;;;;;;5085189;28;20028;-74
2021/04/01 11:18:37;;;;;;;14.27;3.08;;;;;;;;;;5050613;28;20676;-74
2021/04/01 11:21:05;;;;;;;9.80;3.10;;;;;;;;;;5084498;28;20045;-74
2021/04/01 11:23:32;;;;;;;8.57;3.38;;;;;;;;;;5082388;28;20047;-74
2021/04/01 11:25:59;;;;;;;7.03;3.10;;;;;;;;;;5066936;28;20484;-74
2021/04/01 11:28:34;;;;;;;13.52;3.25;;;;;;;;;;5065098;28;20454;-74
2021/04/01 11:31:01;;;;;;;11.93;3.50;;;;;;;;;;5052706;28;20039;-74
2021/04/01 11:33:27;;;;;;;15.40;3.78;;;;;;;;;;5070967;28;20039;-75
2021/04/01 11:38:44;;;;;;;8.98;3.25;;;;;;;;;;5077476;28;20433;-75
2021/04/01 11:41:12;;;;;;;10.20;3.13;;;;;;;;;;5060106;28;20292;-75
2021/04/01 11:43:38;;;;;;;8.60;3.20;;;;;;;;;;5078787;28;20115;-75
2021/04/01 11:46:15;;;;;;;11.70;3.55;;;;;;;;;;5084350;28;20016;-75
2021/04/01 11:48:41;;;;;;;10.05;2.78;;;;;;;;;;5062991;28;20032;-75
2021/04/01 11:51:08;;;;;;;5.75;3.30;;;;;;;;;;5052007;28;20029;-74
2021/04/01 11:53:35;;;;;;;9.98;3.85;;;;;;;;;;5070508;28;20471;-75
2021/04/01 11:56:01;;;;;;;11.40;4.03;;;;;;;;;;5077604;28;20036;-75
2021/04/01 11:58:32;;;;;;;8.13;3.00;;;;;;;;;;5079797;28;20028;-75
2021/04/01 12:01:06;;;;;;;9.98;2.83;;;;;;;;;;5067926;28;20025;-74
2021/04/01 12:04:18;;;;;;;10.00;2.80;;;;;;;;;;5073023;28;20447;-74
2021/04/01 12:06:19;;;;;;;8.70;2.85;;;;;;;;;;5060454;28;20032;-75
2021/04/01 12:08:45;;;;;;;6.53;3.08;;;;;;;;;;5077018;28;20028;-75
2021/04/01 12:11:11;;;;;;;9.77;3.30;;;;;;;;;;5064517;28;20516;-74
2021/04/01 12:13:37;;;;;;;15.25;4.28;;;;;;;;;;5089829;28;20036;-74
2021/04/01 12:16:14;;;;;;;12.57;3.15;;;;;;;;;;5085146;28;20561;-74
2021/04/01 12:18:41;;;;;;;11.60;3.40;;;;;;;;;;5083698;28;20418;-74
2021/04/01 12:21:08;;;;;;;9.48;3.22;;;;;;;;;;5075677;28;20039;-74
2021/04/01 12:23:41;;;;;;;10.75;2.92;;;;;;;;;;5084889;28;20494;-74
2021/04/01 12:26:07;;;;;;;10.07;2.78;;;;;;;;;;5067650;28;20498;-74
2021/04/01 12:28:33;;;;;;;9.23;2.83;;;;;;;;;;5083780;28;20683;-74
2021/04/01 12:31:00;;;;;;;9.35;3.10;;;;;;;;;;5070500;28;20081;-74
2021/04/01 12:33:26;;;;;;;10.93;3.25;;;;;;;;;;5068889;28;20032;-74
2021/04/01 12:35:52;;;;;;;12.05;2.83;;;;;;;;;;5063500;28;20027;-74
2021/04/01 12:38:28;;;;;;;12.27;3.17;;;;;;;;;;5054381;28;20116;-74
2021/04/01 12:40:54;;;;;;;9.40;2.65;;;;;;;;;;5067237;28;20031;-73
2021/04/01 12:43:20;;;;;;;10.52;3.47;;;;;;;;;;5070346;28;20039;-74
2021/04/01 12:45:55;;;;;;;10.75;3.80;;;;;;;;;;5089645;28;20016;-74
2021/04/01 12:48:22;;;;;;;10.85;3.22;;;;;;;;;;5073575;28;20028;-74
2021/04/01 12:50:49;;;;;;;13.90;3.15;;;;;;;;;;5078195;28;20525;-75
2021/04/01 12:53:21;;;;;;;7.43;2.65;;;;;;;;;;5054964;28;20031;-74
2021/04/01 12:55:55;;;;;;;12.30;3.90;;;;;;;;;;5053483;28;20029;-74
2021/04/01 12:58:44;;;;;;;12.20;2.90;;;;;;;;;;5075977;28;20787;-74
2021/04/01 13:01:41;;;;;;;12.50;3.55;;;;;;;;;;5078718;28;20107;-74
2021/04/01 13:04:09;;;;;;;11.32;3.38;;;;;;;;;;5084369;28;20363;-74
2021/04/01 13:11:47;;;;;;;11.13;3.08;;;;;;;;;;5074026;28;20039;-74
2021/04/01 13:14:13;;;;;;;15.18;3.80;;;;;;;;;;5055873;28;20118;-74
2021/04/01 13:16:40;;;;;;;13.30;3.63;;;;;;;;;;5058636;28;20638;-74
2021/04/01 13:19:07;;;;;;;11.38;2.90;;;;;;;;;;5074402;28;20070;-74
2021/04/01 13:21:40;;;;;;;7.70;3.08;;;;;;;;;;5083113;28;20051;-74
2021/04/01 13:26:37;;;;;;;10.60;2.80;;;;;;;;;;5088268;28;20016;-74
2021/04/01 13:29:06;;;;;;;12.73;3.28;;;;;;;;;;5088235;28;20497;-74
2021/04/01 13:36:56;;;;;;;12.13;3.28;;;;;;;;;;5080286;28;20644;-76
2021/04/01 13:39:25;;;;;;;10.38;3.05;;;;;;;;;;5059648;28;20043;-75
2021/04/01 13:44:35;;;;;;;10.23;2.88;;;;;;;;;;5085073;28;20039;-74
2021/04/01 13:47:02;;;;;;;10.52;2.90;;;;;;;;;;5078859;28;20123;-75
2021/04/01 13:49:29;;;;;;;8.88;2.53;;;;;;;;;;5081393;28;20032;-74
2021/04/01 13:52:19;;;;;;;5.18;2.65;;;;;;;;;;5087341;28;20110;-74
2021/04/01 14:10:59;;;;;;;13.70;3.47;;;;;;;;;;5080057;28;20034;-74
2021/04/01 14:13:28;;;;;;;7.55;2.53;;;;;;;;;;5087333;28;20112;-74
2021/04/01 14:15:54;;;;;;;9.95;2.90;;;;;;;;;;5056210;28;20086;-74
2021/04/01 14:18:20;;;;;;;12.05;2.65;;;;;;;;;;5082859;28;20024;-75
2021/04/01 14:20:46;;;;;;;15.25;2.88;;;;;;;;;;5081270;28;20028;-75
2021/04/01 14:23:19;;;;;;;10.65;3.60;;;;;;;;;;5083132;28;20056;-75
2021/04/01 14:25:46;;;;;;;7.47;2.45;;;;;;;;;;5070533;28;20056;-75
2021/04/01 14:28:12;;;;;;;9.82;2.85;;;;;;;;;;5070799;28;20031;-75
2021/04/01 14:30:38;;;;;;;9.68;2.90;;;;;;;;;;5090445;28;20020;-75
2021/04/01 14:33:05;;;;;;;10.77;2.80;;;;;;;;;;5086582;28;20074;-77
2021/04/01 14:35:32;;;;;;;17.65;3.45;;;;;;;;;;5072274;28;20044;-76
2021/04/01 14:38:03;;;;;;;6.88;2.65;;;;;;;;;;5081308;28;20469;-76
2021/04/01 14:40:36;;;;;;;16.05;3.22;;;;;;;;;;5059947;28;20024;-75
2021/04/01 14:43:11;;;;;;;10.57;3.92;;;;;;;;;;5069254;28;20108;-74
2021/04/01 14:45:38;;;;;;;8.75;2.78;;;;;;;;;;5054161;28;20491;-74
2021/04/01 14:48:05;;;;;;;9.38;2.42;;;;;;;;;;5061658;28;20476;-75
2021/04/01 14:50:31;;;;;;;13.20;3.13;;;;;;;;;;5071721;28;20468;-74
2021/04/01 14:52:58;;;;;;;7.22;2.38;;;;;;;;;;5053433;28;20368;-74
2021/04/01 14:55:25;;;;;;;12.02;3.53;;;;;;;;;;5053666;28;20051;-74
2021/04/01 14:57:52;;;;;;;9.88;3.33;;;;;;;;;;5071954;28;20031;-74
2021/04/01 15:00:19;;;;;;;12.32;2.63;;;;;;;;;;5071147;28;20056;-74
2021/04/01 15:02:46;;;;;;;12.50;3.15;;;;;;;;;;5070515;28;20095;-74
2021/04/01 15:05:12;;;;;;;10.45;2.90;;;;;;;;;;5071283;28;20036;-74
2021/04/01 15:07:39;;;;;;;8.63;2.83;;;;;;;;;;5067429;28;20024;-74
2021/04/01 15:10:06;;;;;;;9.50;3.05;;;;;;;;;;5070124;28;20070;-74
2021/04/01 15:12:33;;;;;;;12.07;2.70;;;;;;;;;;5067074;28;20384;-74
2021/04/01 15:15:00;;;;;;;8.77;2.70;;;;;;;;;;5054197;28;20497;-74
2021/04/01 15:17:28;;;;;;;9.68;2.78;;;;;;;;;;5050333;28;20049;-74
2021/04/01 15:19:55;;;;;;;12.30;2.47;;;;;;;;;;5050394;28;20029;-74
2021/04/01 15:22:21;;;;;;;10.32;3.42;;;;;;;;;;5050565;28;20081;-74
2021/04/01 15:24:47;;;;;;;8.35;3.20;;;;;;;;;;5049181;28;20120;-74
2021/04/01 15:27:13;;;;;;;14.57;4.13;;;;;;;;;;5050584;28;20021;-74
2021/04/01 15:29:39;;;;;;;9.05;2.47;;;;;;;;;;5049159;28;20033;-74
2021/04/01 15:32:05;;;;;;;10.70;3.00;;;;;;;;;;5056789;28;20143;-74
2021/04/01 15:34:32;;;;;;;11.02;2.85;;;;;;;;;;5057774;28;20028;-74
2021/04/01 15:36:58;;;;;;;9.68;2.92;;;;;;;;;;5058477;28;20119;-74
2021/04/01 15:39:24;;;;;;;10.10;2.83;;;;;;;;;;5060894;28;20027;-74
2021/04/01 15:41:50;;;;;;;20.38;3.13;;;;;;;;;;5050894;28;20040;-73
2021/04/01 15:44:17;;;;;;;13.48;5.55;;;;;;;;;;5050921;28;20064;-73
2021/04/01 15:46:43;;;;;;;10.57;2.47;;;;;;;;;;5051803;28;20373;-74
2021/04/01 15:49:09;;;;;;;12.15;3.67;;;;;;;;;;5049655;28;20027;-74
2021/04/01 15:51:35;;;;;;;8.05;2.47;;;;;;;;;;5030907;28;20025;-74
2021/04/01 15:54:01;;;;;;;17.83;3.30;;;;;;;;;;5048742;28;20064;-74
2021/04/01 15:56:27;;;;;;;9.02;3.20;;;;;;;;;;5048647;28;20075;-74
2021/04/01 15:58:54;;;;;;;10.65;3.03;;;;;;;;;;5049134;28;20431;-74
2021/04/01 16:01:20;;;;;;;10.30;2.97;;;;;;;;;;5047961;28;20390;-74
2021/04/01 16:03:46;;;;;;;11.13;2.80;;;;;;;;;;5045162;28;20095;-74
2021/04/01 16:06:12;;;;;;;11.15;3.05;;;;;;;;;;5050671;28;20500;-74
2021/04/01 16:08:39;;;;;;;9.38;2.38;;;;;;;;;;5051115;28;20037;-74
2021/04/01 16:11:05;;;;;;;10.95;2.80;;;;;;;;;;5060250;28;20074;-74
2021/04/01 16:13:34;;;;;;;10.10;3.05;;;;;;;;;;5066984;28;20052;-74
2021/04/01 16:16:01;;;;;;;11.65;2.53;;;;;;;;;;5078546;28;20102;-74
2021/04/01 16:18:27;;;;;;;8.88;2.70;;;;;;;;;;5071190;28;20050;-74
2021/04/01 16:20:53;;;;;;;12.30;3.42;;;;;;;;;;5070726;28;20031;-74
2021/04/01 16:23:19;;;;;;;8.05;2.88;;;;;;;;;;5052109;28;20119;-74
2021/04/01 16:25:45;;;;;;;9.65;3.00;;;;;;;;;;5055213;28;20116;-74
2021/04/01 16:28:11;;;;;;;10.05;2.83;;;;;;;;;;5070877;28;20040;-74
2021/04/01 16:30:38;;;;;;;9.75;2.42;;;;;;;;;;5070786;28;20021;-74
2021/04/01 16:33:09;;;;;;;14.30;2.70;;;;;;;;;;5069770;28;20025;-74
2021/04/01 16:35:37;;;;;;;14.95;3.40;;;;;;;;;;5071254;28;20021;-74
2021/04/01 16:38:03;;;;;;;9.20;3.40;;;;;;;;;;5088137;28;20021;-74
2021/04/01 16:40:29;;;;;;;12.15;2.92;;;;;;;;;;5052852;28;20056;-73
2021/04/01 16:42:56;;;;;;;9.70;2.97;;;;;;;;;;5090960;28;20024;-73
2021/04/01 16:45:23;;;;;;;12.85;2.60;;;;;;;;;;5074890;28;20434;-73